Time;durP1;ratioP1;P1;durP2;ratioP2;P2;SDS_P1;SDS_P2;PMS_P1;PMS_P2;Temp;Humidity;BMP_temperature;BMP_pressure;BME280_temperature;BME280_humidity;BME280_pressure;Samples;Min_cycle;Max_cycle;Signal;HPM_P1;HPM_P2
2022/10/27 17:04:27;;;;;;;13.63;4.82;;;;;;;;;;5031968;28;20487;-41
2022/10/27 17:06:54;;;;;;;10.02;4.50;;;;;;;;;;5041670;28;20045;-40
2022/10/27 17:09:20;;;;;;;7.78;3.70;;;;;;;;;;5046179;28;20044;-38
2022/10/27 17:11:46;;;;;;;6.75;3.63;;;;;;;;;;5042039;28;20026;-39
2022/10/27 17:14:12;;;;;;;6.05;3.25;;;;;;;;;;5037306;28;20147;-40
2022/10/27 17:16:38;;;;;;;9.80;4.00;;;;;;;;;;5046896;28;20028;-45
2022/10/27 17:19:04;;;;;;;8.05;2.83;;;;;;;;;;5045648;28;20475;-41
2022/10/27 17:21:30;;;;;;;6.10;3.25;;;;;;;;;;5048633;28;20021;-42
2022/10/27 17:23:57;;;;;;;5.97;3.13;;;;;;;;;;5044687;28;20041;-41
2022/10/27 17:26:23;;;;;;;8.23;3.00;;;;;;;;;;5050609;28;20092;-40
2022/10/27 17:28:50;;;;;;;7.35;4.03;;;;;;;;;;5043312;28;20072;-40
2022/10/27 17:31:17;;;;;;;5.90;3.17;;;;;;;;;;5043684;28;20401;-39
2022/10/27 17:33:43;;;;;;;6.32;2.85;;;;;;;;;;5034555;28;20125;-39
2022/10/27 17:36:10;;;;;;;6.95;3.30;;;;;;;;;;5061159;28;20498;-38
2022/10/27 17:38:36;;;;;;;6.13;3.10;;;;;;;;;;5041036;28;20438;-44
2022/10/27 17:41:03;;;;;;;6.43;2.85;;;;;;;;;;5058339;28;20075;-41
2022/10/27 17:43:29;;;;;;;7.10;2.85;;;;;;;;;;5048669;28;20411;-41
2022/10/27 17:45:59;;;;;;;5.07;2.80;;;;;;;;;;5051870;28;20021;-39
2022/10/27 17:48:29;;;;;;;5.00;2.40;;;;;;;;;;5037156;28;20052;-41
2022/10/27 17:51:01;;;;;;;9.02;3.80;;;;;;;;;;5053831;28;20496;-41
2022/10/27 17:53:27;;;;;;;5.13;2.92;;;;;;;;;;5034909;28;20061;-42
2022/10/27 17:55:56;;;;;;;5.05;2.88;;;;;;;;;;5047943;28;20365;-38
2022/10/27 17:58:22;;;;;;;5.78;2.88;;;;;;;;;;5044427;28;20042;-39
2022/10/27 18:00:48;;;;;;;5.65;3.20;;;;;;;;;;5050312;28;20399;-39
2022/10/27 18:03:14;;;;;;;8.82;3.35;;;;;;;;;;5044224;28;20041;-39
2022/10/27 18:05:40;;;;;;;6.63;2.55;;;;;;;;;;5040995;28;20025;-43
2022/10/27 18:08:06;;;;;;;7.10;3.05;;;;;;;;;;5038907;28;20068;-38
2022/10/27 18:10:32;;;;;;;5.68;3.28;;;;;;;;;;5060877;28;20025;-39
2022/10/27 18:12:58;;;;;;;5.88;3.20;;;;;;;;;;5039187;28;20017;-39
2022/10/27 18:15:25;;;;;;;6.25;3.00;;;;;;;;;;5029659;28;20455;-40
2022/10/27 18:17:50;;;;;;;4.07;2.60;;;;;;;;;;5029446;28;20032;-41
2022/10/27 18:20:17;;;;;;;5.60;2.92;;;;;;;;;;5040204;28;20021;-40
2022/10/27 18:22:43;;;;;;;6.63;2.53;;;;;;;;;;5028383;28;20038;-39
2022/10/27 18:25:09;;;;;;;4.55;2.42;;;;;;;;;;5037237;28;20047;-40
2022/10/27 18:27:35;;;;;;;5.10;2.50;;;;;;;;;;5033568;28;20454;-42
2022/10/27 18:30:01;;;;;;;5.10;2.55;;;;;;;;;;5035854;28;20076;-39
2022/10/27 18:32:27;;;;;;;4.03;2.75;;;;;;;;;;5038626;28;20434;-39
2022/10/27 18:34:53;;;;;;;7.95;2.65;;;;;;;;;;5035032;28;20037;-39
2022/10/27 18:37:19;;;;;;;5.63;2.83;;;;;;;;;;5040401;28;20020;-39
2022/10/27 18:39:45;;;;;;;6.70;3.08;;;;;;;;;;5020857;28;20113;-39
2022/10/27 18:42:11;;;;;;;11.38;3.45;;;;;;;;;;5039107;28;20097;-38
2022/10/27 18:44:37;;;;;;;7.53;3.22;;;;;;;;;;5029478;28;20544;-42
2022/10/27 18:47:03;;;;;;;7.53;3.22;;;;;;;;;;5033113;28;20071;-39
2022/10/27 18:49:29;;;;;;;8.25;2.70;;;;;;;;;;5030720;28;20459;-39
2022/10/27 18:51:55;;;;;;;5.47;2.75;;;;;;;;;;5034217;28;20021;-39
2022/10/27 18:54:20;;;;;;;6.93;3.67;;;;;;;;;;5031800;28;20398;-38
2022/10/27 18:56:46;;;;;;;8.38;2.47;;;;;;;;;;5032392;28;20009;-41
2022/10/27 18:59:13;;;;;;;8.65;3.03;;;;;;;;;;5030580;28;20537;-39
2022/10/27 19:01:40;;;;;;;5.80;3.20;;;;;;;;;;5033311;28;20530;-43
2022/10/27 19:04:07;;;;;;;8.07;2.95;;;;;;;;;;5031455;28;20507;-39
2022/10/27 19:06:33;;;;;;;7.72;2.58;;;;;;;;;;5030792;28;20026;-41
2022/10/27 19:08:59;;;;;;;7.80;2.65;;;;;;;;;;5033228;28;20485;-39
2022/10/27 19:11:26;;;;;;;7.05;2.92;;;;;;;;;;5033029;28;20044;-39
2022/10/27 19:13:53;;;;;;;5.32;2.65;;;;;;;;;;5029494;28;20021;-39
2022/10/27 19:16:20;;;;;;;4.68;2.60;;;;;;;;;;5031362;28;20025;-39
2022/10/27 19:18:46;;;;;;;10.60;3.30;;;;;;;;;;5031346;28;20070;-39
2022/10/27 19:21:17;;;;;;;6.07;3.35;;;;;;;;;;5032960;28;20505;-39
2022/10/27 19:23:43;;;;;;;7.20;3.60;;;;;;;;;;5031717;28;20021;-39
2022/10/27 19:26:14;;;;;;;5.55;2.63;;;;;;;;;;5032464;28;20029;-39
2022/10/27 19:28:41;;;;;;;7.40;3.25;;;;;;;;;;5031345;28;20462;-43
2022/10/27 19:31:08;;;;;;;7.85;3.20;;;;;;;;;;5032250;28;20025;-39
2022/10/27 19:33:34;;;;;;;3.95;2.72;;;;;;;;;;5027696;28;20034;-39
2022/10/27 19:36:07;;;;;;;4.85;2.63;;;;;;;;;;5031676;28;20025;-39
2022/10/27 19:38:33;;;;;;;5.70;2.50;;;;;;;;;;5032825;28;20412;-39
2022/10/27 19:40:59;;;;;;;5.85;2.38;;;;;;;;;;5031208;28;20013;-39
2022/10/27 19:43:25;;;;;;;4.45;2.53;;;;;;;;;;5032329;28;20056;-39
2022/10/27 19:45:51;;;;;;;3.22;2.55;;;;;;;;;;5034119;28;20462;-39
2022/10/27 19:48:18;;;;;;;5.93;2.95;;;;;;;;;;5032852;28;20116;-39
2022/10/27 19:50:44;;;;;;;5.13;2.70;;;;;;;;;;5027581;28;20373;-39
2022/10/27 19:53:10;;;;;;;4.75;2.58;;;;;;;;;;5032237;28;20477;-39
2022/10/27 19:55:36;;;;;;;6.20;2.60;;;;;;;;;;5031206;28;20022;-42
2022/10/27 19:58:03;;;;;;;9.10;2.80;;;;;;;;;;5032032;28;20072;-39
2022/10/27 20:00:29;;;;;;;6.10;2.38;;;;;;;;;;5031929;28;20029;-39
2022/10/27 20:02:55;;;;;;;3.25;2.47;;;;;;;;;;5042586;28;20052;-39
2022/10/27 20:05:22;;;;;;;5.30;2.53;;;;;;;;;;5065264;28;20070;-39
2022/10/27 20:07:49;;;;;;;10.00;3.72;;;;;;;;;;5052582;28;20905;-39
2022/10/27 20:10:15;;;;;;;5.45;2.38;;;;;;;;;;5060879;28;20012;-39
2022/10/27 20:12:41;;;;;;;4.50;2.30;;;;;;;;;;5060061;28;20358;-39
2022/10/27 20:15:07;;;;;;;5.38;2.28;;;;;;;;;;5048921;28;20024;-39
2022/10/27 20:17:33;;;;;;;5.35;2.92;;;;;;;;;;5053464;28;20021;-39
2022/10/27 20:19:59;;;;;;;3.83;2.70;;;;;;;;;;5050544;28;20025;-39
2022/10/27 20:22:26;;;;;;;5.22;2.03;;;;;;;;;;5051435;28;20060;-39
2022/10/27 20:24:52;;;;;;;5.07;2.55;;;;;;;;;;5049227;28;20032;-39
2022/10/27 20:27:18;;;;;;;4.45;2.38;;;;;;;;;;5048857;28;20017;-39
2022/10/27 20:29:44;;;;;;;4.40;2.30;;;;;;;;;;5050073;28;20343;-39
2022/10/27 20:32:10;;;;;;;4.57;2.67;;;;;;;;;;5051229;28;20031;-38
2022/10/27 20:34:36;;;;;;;4.35;2.20;;;;;;;;;;5050357;28;20028;-42
2022/10/27 20:37:02;;;;;;;5.80;2.63;;;;;;;;;;5050449;28;20052;-39
2022/10/27 20:39:28;;;;;;;4.45;2.45;;;;;;;;;;5050824;28;20025;-38
2022/10/27 20:41:54;;;;;;;3.50;2.58;;;;;;;;;;5046157;28;20021;-38
2022/10/27 20:44:20;;;;;;;3.75;2.50;;;;;;;;;;5049921;28;20021;-39
2022/10/27 20:46:47;;;;;;;6.05;2.60;;;;;;;;;;5054572;28;20025;-39
2022/10/27 20:49:13;;;;;;;5.07;2.40;;;;;;;;;;5050920;28;20034;-38
2022/10/27 20:51:39;;;;;;;4.75;2.35;;;;;;;;;;5050551;28;20052;-43
2022/10/27 20:54:06;;;;;;;5.05;1.88;;;;;;;;;;5050754;28;20100;-39
2022/10/27 20:56:36;;;;;;;5.40;2.22;;;;;;;;;;5051101;28;20427;-39
2022/10/27 20:59:02;;;;;;;3.72;2.00;;;;;;;;;;5050194;28;20013;-39
2022/10/27 21:01:35;;;;;;;3.83;2.40;;;;;;;;;;5048861;28;20025;-38
2022/10/27 21:04:02;;;;;;;3.58;2.20;;;;;;;;;;5043860;28;20056;-39
2022/10/27 21:06:29;;;;;;;4.00;2.53;;;;;;;;;;5051256;28;20100;-43
2022/10/27 21:08:56;;;;;;;3.78;2.05;;;;;;;;;;5045163;28;20060;-39
2022/10/27 21:11:22;;;;;;;5.15;2.28;;;;;;;;;;5050222;28;20027;-39
2022/10/27 21:13:52;;;;;;;12.35;3.75;;;;;;;;;;5049576;28;20343;-39
2022/10/27 21:16:18;;;;;;;7.22;2.47;;;;;;;;;;5041829;28;20451;-39
2022/10/27 21:18:44;;;;;;;4.35;2.47;;;;;;;;;;5049193;28;20100;-39
2022/10/27 21:21:14;;;;;;;4.47;2.17;;;;;;;;;;5051166;28;20093;-39
2022/10/27 21:23:40;;;;;;;4.25;2.53;;;;;;;;;;5049893;28;20021;-44
2022/10/27 21:26:06;;;;;;;3.72;2.15;;;;;;;;;;5050904;28;20033;-38
2022/10/27 21:28:32;;;;;;;3.88;1.98;;;;;;;;;;5049445;28;20017;-40
2022/10/27 21:31:05;;;;;;;4.40;2.47;;;;;;;;;;5049446;28;20634;-39
2022/10/27 21:33:31;;;;;;;3.15;2.28;;;;;;;;;;5050195;28;20462;-39
2022/10/27 21:35:57;;;;;;;3.70;2.22;;;;;;;;;;5049548;28;20608;-39
2022/10/27 21:38:23;;;;;;;4.13;2.13;;;;;;;;;;5050498;28;20079;-39
2022/10/27 21:40:49;;;;;;;8.73;2.30;;;;;;;;;;5048137;28;20037;-40
2022/10/27 21:43:15;;;;;;;2.35;1.77;;;;;;;;;;5058815;28;20352;-39
2022/10/27 21:45:41;;;;;;;3.35;1.70;;;;;;;;;;5056075;28;20059;-39
2022/10/27 21:48:07;;;;;;;3.35;1.85;;;;;;;;;;5059070;28;20017;-39
2022/10/27 21:50:33;;;;;;;4.03;2.40;;;;;;;;;;5060475;28;20095;-39
2022/10/27 21:52:59;;;;;;;3.50;2.13;;;;;;;;;;5062767;28;20609;-39
2022/10/27 21:55:25;;;;;;;3.70;2.00;;;;;;;;;;5062286;28;20017;-39
2022/10/27 21:57:50;;;;;;;3.90;1.60;;;;;;;;;;5061876;28;20450;-39
2022/10/27 22:00:17;;;;;;;5.60;2.15;;;;;;;;;;5062930;28;20095;-39
2022/10/27 22:02:42;;;;;;;5.85;2.55;;;;;;;;;;5055609;28;20049;-39
2022/10/27 22:05:09;;;;;;;3.30;1.90;;;;;;;;;;5059048;28;20017;-39
2022/10/27 22:07:34;;;;;;;3.97;2.17;;;;;;;;;;5064414;28;20370;-39
2022/10/27 22:10:00;;;;;;;5.07;1.83;;;;;;;;;;5057675;28;20029;-39
2022/10/27 22:12:26;;;;;;;4.03;2.40;;;;;;;;;;5063217;28;20529;-39
2022/10/27 22:14:52;;;;;;;3.47;1.80;;;;;;;;;;5061053;28;20021;-39
2022/10/27 22:17:18;;;;;;;3.92;1.50;;;;;;;;;;5059695;28;20024;-40
2022/10/27 22:19:45;;;;;;;4.93;2.35;;;;;;;;;;5062290;28;20046;-39
2022/10/27 22:22:11;;;;;;;3.05;2.35;;;;;;;;;;5064707;28;20096;-39
2022/10/27 22:24:37;;;;;;;4.03;1.95;;;;;;;;;;5061783;28;20092;-42
2022/10/27 22:27:03;;;;;;;3.42;1.90;;;;;;;;;;5050920;28;21527;-39
2022/10/27 22:29:29;;;;;;;5.55;1.85;;;;;;;;;;5061127;28;20494;-39
2022/10/27 22:31:55;;;;;;;4.00;1.75;;;;;;;;;;5062220;28;20088;-40
2022/10/27 22:34:21;;;;;;;5.15;2.00;;;;;;;;;;5060043;28;20354;-39
2022/10/27 22:36:47;;;;;;;4.28;2.28;;;;;;;;;;5061345;28;20013;-39
2022/10/27 22:39:13;;;;;;;3.00;1.95;;;;;;;;;;5063636;28;20373;-39
2022/10/27 22:41:42;;;;;;;3.28;2.63;;;;;;;;;;5060490;28;20526;-43
2022/10/27 22:44:08;;;;;;;3.55;1.70;;;;;;;;;;5055366;28;20028;-39
2022/10/27 22:46:35;;;;;;;2.50;1.90;;;;;;;;;;5061423;28;20013;-39
2022/10/27 22:49:01;;;;;;;2.83;1.90;;;;;;;;;;5052930;28;20025;-40
2022/10/27 22:51:27;;;;;;;2.97;2.00;;;;;;;;;;5058683;28;20035;-39
2022/10/27 22:53:54;;;;;;;3.25;2.05;;;;;;;;;;5060639;28;20020;-40
2022/10/27 22:56:22;;;;;;;3.67;2.72;;;;;;;;;;5059274;28;20507;-40
2022/10/27 22:58:49;;;;;;;4.15;2.03;;;;;;;;;;5059437;28;20024;-39
2022/10/27 23:01:19;;;;;;;3.00;1.58;;;;;;;;;;5061224;28;20025;-39
2022/10/27 23:03:46;;;;;;;3.10;1.80;;;;;;;;;;5055791;28;20097;-39
2022/10/27 23:06:12;;;;;;;5.00;2.35;;;;;;;;;;5062836;28;20024;-39
2022/10/27 23:08:38;;;;;;;4.45;1.85;;;;;;;;;;5061496;28;20684;-44
2022/10/27 23:11:05;;;;;;;2.67;1.70;;;;;;;;;;5060835;28;20143;-39
2022/10/27 23:13:33;;;;;;;5.68;2.03;;;;;;;;;;5063538;28;20016;-39
2022/10/27 23:16:00;;;;;;;4.53;1.92;;;;;;;;;;5058379;28;20204;-39
2022/10/27 23:18:26;;;;;;;3.35;1.88;;;;;;;;;;5060024;28;20477;-39
2022/10/27 23:20:59;;;;;;;2.50;1.67;;;;;;;;;;5051283;28;20017;-39
2022/10/27 23:23:26;;;;;;;4.28;2.40;;;;;;;;;;5053215;28;20569;-39
2022/10/27 23:25:52;;;;;;;2.65;1.50;;;;;;;;;;5051292;28;20365;-38
2022/10/27 23:28:18;;;;;;;4.60;2.05;;;;;;;;;;5052601;28;20533;-41
2022/10/27 23:30:44;;;;;;;3.72;2.40;;;;;;;;;;5051494;28;20114;-39
2022/10/27 23:33:10;;;;;;;3.10;1.88;;;;;;;;;;5052602;28;20020;-39
2022/10/27 23:35:36;;;;;;;6.05;2.10;;;;;;;;;;5051973;28;20028;-42
2022/10/27 23:38:02;;;;;;;3.47;1.90;;;;;;;;;;5052028;28;20025;-39
2022/10/27 23:40:28;;;;;;;4.97;2.22;;;;;;;;;;5052601;28;20037;-39
2022/10/27 23:42:54;;;;;;;4.88;1.73;;;;;;;;;;5045625;28;20029;-40
2022/10/27 23:45:21;;;;;;;2.50;1.52;;;;;;;;;;5052066;28;20017;-39
2022/10/27 23:47:47;;;;;;;2.50;1.52;;;;;;;;;;5051253;28;20020;-39
2022/10/27 23:50:12;;;;;;;4.03;2.08;;;;;;;;;;5051791;28;20100;-39
2022/10/27 23:52:38;;;;;;;3.20;1.73;;;;;;;;;;5052167;28;20028;-43
2022/10/27 23:55:05;;;;;;;3.38;1.80;;;;;;;;;;5052059;28;20516;-39
2022/10/27 23:57:31;;;;;;;5.45;1.60;;;;;;;;;;5052421;28;20039;-39
2022/10/27 23:59:57;;;;;;;2.15;1.40;;;;;;;;;;5051460;28;20104;-39
